Overview Statistics Trail Chart Weather Telemetry Raw packets
 

This is the latest recevied weather packets stored in our database for station/object KK7ZBX. If no packets are shown the sender has not sent any weather packets the latest 10 day(s).

<< 1 2 3 4 5 6 7 >>
Time Temp. Humidity Pressure Rain* Wind** Luminosity Snow
1788170423 13.89° C 77% 1015.8 hPa - - - -
1788166825 13.89° C 76% 1016.3 hPa - - - -
1788159606 15° C 68% 1017.2 hPa - - - -
1788157820 15° C 66% 1017.3 hPa - - - -
1788156026 15.56° C 64% 1017.4 hPa - - - -
1788154226 16.11° C 62% 1017.8 hPa - - - -
1788147034 18.33° C 52% 1017.9 hPa - - - -
1788145224 19.44° C 51% 1017.9 hPa - - - -
1788139824 20.56° C 50% 1018.2 hPa - - - -
1788132613 20.56° C 51% 1018.9 hPa - - - -
1788129030 20.56° C 52% 1019.5 hPa - - - -
1788127233 20° C 54% 1019.6 hPa - - - -
1788121820 18.89° C 61% 1020.3 hPa - - - -
1788120016 17.78° C 64% 1020.6 hPa - - - -
1788114630 17.78° C 66% 1020.7 hPa - - - -
1788112818 17.22° C 68% 1020.8 hPa - - - -
1788111051 16.67° C 69% 1020.9 hPa - - - -
1788111019 16.67° C 69% 1020.9 hPa - - - -
1788103835 15.56° C 74% 1020.8 hPa - - - -
1788102008 15° C 76% 1020.8 hPa - - - -
1788098413 14.44° C 76% 1020.4 hPa - - - -
1788096627 14.44° C 76% 1020.3 hPa - - - -
1788093014 14.44° C 76% 1020.2 hPa - - - -
1788089408 14.44° C 76% 1020.4 hPa - - - -
1788087617 14.44° C 75% 1020.2 hPa - - - -

* Rain since midnight (hover to see other rain measurements)
** Current wind speed in m/s (hover to see current wind gust speed)